• Join FlightAware (Why Join?)
  • Login
  • US Flag GB Flag 
01:27 EDT


 

Airport Tracker/Info


-or-


 

Live Flight TrackerFlight Track Log ✈ EJA695 ✈ 22-Jul-2013 ✈ KAPF - KIAD

Flight Track Log - Related Links

Times and Time Zones

All times are in EDT time to prevent confusion due to time zone crossing. See the EJA695 flight status page for this flight to view local times or setup timezone preferences in your user account.

Time Position Orientation Groundspeed Altitude Reporting Facility
EDT Latitude Longitude Course Direction KTS MPH feet Rate Location/Type
09:21 26.1797 -81.6392 North 262 302 6,500  Level Miami Center
09:22 26.2544 -81.6492 353° North 271 312 9,000 2,340 Climbing Miami Center
09:23 26.3314 -81.6592 353° North 276 318 11,200 2,100 Climbing Miami Center
09:24 26.4167 -81.6697 354° North 288 331 13,200 1,380 Climbing Miami Center
09:25 26.8119 -81.7500 North  Level FlightAware Approximate
09:25 26.4978 -81.6800 354° North 305 351 14,000  Level Miami Center
09:26 26.9216 -81.7350 North  Level FlightAware Approximate
09:26 26.5956 -81.6933 353° North 333 383 14,000  Level Miami Center
09:27 26.6972 -81.7067 353° North 351 404 14,300 1,200 Climbing Miami Center
09:28 26.7931 -81.7178 354° North 356 410 16,400 1,740 Climbing Miami Center
09:29 26.8969 -81.7314 353° North 346 398 17,800 1,800 Climbing Miami Center
09:30 26.9761 -81.7392 355° North 334 384 20,000 2,100 Climbing Miami Center
09:31 27.0711 -81.7619 348° North 327 376 22,000 1,680 Climbing Miami Center
09:32 27.1622 -81.7914 344° North 327 376 23,400 1,380 Climbing Miami Center
09:33 27.2550 -81.8211 344° North 340 391 24,800 1,320 Climbing Miami Center
09:34 27.3394 -81.8506 343° North 340 391 26,100 1,320 Climbing Miami Center
09:35 27.4333 -81.8569 357° North 340 391 27,500 1,500 Climbing Miami Center
09:36 27.5308 -81.8119 22° Northeast 331 381 29,200 1,260 Climbing Miami Center
09:38 27.7153 -81.7261 22° Northeast 354 407 31,300 1,020 Climbing Miami Center
09:39 27.8000 -81.6875 22° Northeast 359 413 32,300 900 Climbing Miami Center
09:40 27.9039 -81.6403 22° Northeast 359 413 33,200 840 Climbing Miami Center
09:41 28.0014 -81.5928 23° Northeast 365 420 34,000 480 Climbing Miami Center
09:42 28.1053 -81.5475 21° North 379 436 34,200 660 Climbing Miami Center
09:44 28.2418 -81.4541 24° Northeast  Level FlightAware Approximate
09:44 28.3119 -81.4783 24° Northeast 389 448 36,100  Level Miami Center
09:45 28.4447 -81.4808 359° North 387 445 37,300 840 Climbing Jacksonville Center
09:46 28.5533 -81.4839 359° North 387 445 38,000 720 Climbing Jacksonville Center
09:47 28.6619 -81.4847 360° North 382 440 38,800 780 Climbing Jacksonville Center
09:48 28.7683 -81.4856 360° North 382 440 39,600 660 Climbing Jacksonville Center
09:49 28.8769 -81.4889 358° North 382 440 40,200 540 Climbing Jacksonville Center
09:50 28.9853 -81.4872 North 382 440 40,700 360 Climbing Jacksonville Center
09:51 29.0961 -81.4906 358° North 382 440 41,000 120 Climbing Jacksonville Center
09:52 29.2089 -81.4936 359° North 387 445 41,000  Level Jacksonville Center
09:53 29.3194 -81.4969 358° North 387 445 41,000  Level Jacksonville Center
09:54 29.4342 -81.4978 360° North 392 451 41,000  Level Jacksonville Center
09:55 29.5492 -81.4983 360° North 403 464 41,000  Level Jacksonville Center
09:56 29.6661 -81.4992 360° North 403 464 41,000  Level Jacksonville Center
09:57 29.7808 -81.5022 359° North 408 470 41,000  Level Jacksonville Center
09:58 29.8978 -81.5053 359° North 408 470 41,000  Level Jacksonville Center
09:59 30.0042 -81.5039 North 413 475 41,000  Level Jacksonville Center
10:00 30.1211 -81.5069 359° North 413 475 41,000  Level Jacksonville Center
10:01 30.2403 -81.5053 North 419 482 41,000  Level Jacksonville Center
10:02 30.3572 -81.5058 360° North 419 482 41,000  Level Jacksonville Center
10:03 30.4739 -81.4969 North 419 482 41,000  Level Jacksonville Center
10:04 30.5928 -81.4906 North 419 482 41,000  Level Jacksonville Center
10:05 30.7117 -81.4814 North 419 482 41,000  Level Jacksonville Center
10:06 30.8286 -81.4725 North 419 482 41,000  Level Jacksonville Center
10:07 30.9453 -81.4514 North 419 482 41,000  Level Jacksonville Center
10:08 31.0533 -81.3964 24° Northeast 419 482 41,000  Level Jacksonville Center
10:09 31.1592 -81.3414 24° Northeast 414 476 41,000  Level Jacksonville Center
10:10 31.2669 -81.2883 23° Northeast 414 476 41,000  Level Jacksonville Center
10:11 31.3831 -81.2231 26° Northeast 414 476 41,000  Level Jacksonville Center
10:12 31.4889 -81.1678 24° Northeast 419 482 41,000  Level Jacksonville Center
10:13 31.5883 -81.1194 22° Northeast 419 482 41,000  Level Jacksonville Center
10:14 31.7064 -81.0561 25° Northeast 419 482 41,000  Level Jacksonville Center
10:15 31.8039 -81.0053 24° Northeast 414 476 41,000  Level Jacksonville Center
10:16 31.9219 -80.9442 24° Northeast 414 476 41,000  Level Jacksonville Center
10:17 32.0317 -80.8856 24° Northeast 419 482 41,000  Level Jacksonville Center
10:18 32.1311 -80.8367 23° Northeast 419 482 41,000  Level Jacksonville Center
10:19 32.2511 -80.7750 23° Northeast 419 482 41,000  Level Jacksonville Center
10:20 32.3464 -80.7236 24° Northeast 414 476 41,000  Level Jacksonville Center
10:21 32.4539 -80.6669 24° Northeast 414 476 41,000  Level Jacksonville Center
10:22 32.5656 -80.6100 23° Northeast 419 482 41,000  Level Jacksonville Center
10:23 32.6731 -80.5531 24° Northeast 419 482 41,000  Level Jacksonville Center
10:24 32.7828 -80.4958 24° Northeast 419 482 41,000  Level Jacksonville Center
10:25 32.8881 -80.4386 25° Northeast 414 476 41,000  Level Jacksonville Center
10:26 33.0139 -80.3708 24° Northeast 428 493 41,000  Level Jacksonville Center
10:27 33.1256 -80.3131 23° Northeast 442 509 41,000  Level Jacksonville Center
10:28 33.2269 -80.2656 21° North 432 497 41,000  Level Jacksonville Center
10:29 33.3297 -80.2028 27° Northeast 432 497 41,000  Level Jacksonville Center
10:30 33.4392 -80.1447 24° Northeast 426 490 41,000  Level Jacksonville Center
10:31 33.5567 -80.0811 24° Northeast 426 490 41,000  Level Jacksonville Center
10:32 33.6639 -80.0228 24° Northeast 421 484 41,000  Level Jacksonville Center
10:33 33.7731 -79.9619 25° Northeast 421 484 41,000  Level Jacksonville Center
10:34 33.8825 -79.9033 24° Northeast 416 479 41,000  Level Jacksonville Center
10:35 33.9894 -79.8444 25° Northeast 416 479 41,000  Level Jacksonville Center
10:36 34.0986 -79.7831 25° Northeast 416 479 41,000  Level Jacksonville Center
10:37 34.2078 -79.7264 23° Northeast 416 479 41,000  Level Jacksonville Center
10:38 34.3003 -79.6703 27° Northeast 416 479 41,000  Level Jacksonville Center
10:39 34.4092 -79.6083 25° Northeast 416 479 41,000  Level Jacksonville Center
10:40 34.5181 -79.5511 23° Northeast 421 484 41,000  Level Jacksonville Center
10:41 34.6447 -79.4797 25° Northeast 412 474 41,000 -240 Level Washington Center
10:42 34.7511 -79.4217 24° Northeast 412 474 40,500 -1,020 Descending Washington Center
10:43 34.8614 -79.3608 24° Northeast 412 474 39,000 -1,380 Descending Washington Center
10:44 34.9550 -79.3094 24° Northeast 412 474 37,800 -1,320 Descending Washington Center
10:45 35.0611 -79.2483 25° Northeast 412 474 36,400 -1,500 Descending Washington Center
10:46 35.1714 -79.1875 24° Northeast 412 474 34,900 -1,500 Descending Washington Center
10:47 35.2817 -79.1261 24° Northeast 422 486 33,400 -1,500 Descending Washington Center
10:48 35.3942 -79.0622 25° Northeast 433 498 31,900 -1,440 Descending Washington Center
10:49 35.5067 -78.9983 25° Northeast 433 498 30,500 -1,800 Descending Washington Center
10:50 35.6192 -78.9342 25° Northeast 433 498 28,400 -1,320 Descending Washington Center
10:51 35.7336 -78.8697 25° Northeast 433 498 28,000 -240 Descending Washington Center
10:52 35.8417 -78.8078 25° Northeast 428 493 28,000  Level Washington Center
10:53 35.9497 -78.7453 25° Northeast 428 493 28,000 -480 Level Washington Center
10:54 36.0578 -78.6828 25° Northeast 428 493 27,100 -540 Descending Washington Center
10:55 36.1722 -78.6178 25° Northeast 428 493 27,000 -60 Descending Washington Center
10:56 36.2844 -78.5528 25° Northeast 433 498 27,000  Level Washington Center
10:57 36.3944 -78.4897 25° Northeast 433 498 27,000  Level Washington Center
10:58 36.5044 -78.4267 25° Northeast 433 498 27,000 -900 Level Washington Center
10:59 36.6186 -78.3636 24° Northeast 428 493 25,300 -1,800 Descending Washington Center
11:00 36.7411 -78.2875 26° Northeast 434 499 23,100 -1,500 Descending Washington Center
11:01 36.8722 -78.2117 25° Northeast 434 499 22,000 -600 Descending Washington Center
11:03 36.9800 -78.1503 24° Northeast 428 493 22,000  Level Washington Center
11:03 37.0836 -78.0886 25° Northeast 423 487 22,000  Level Washington Center
11:04 37.1892 -78.0269 25° Northeast 418 481 22,000  Level Washington Center
11:06 37.2944 -77.9675 24° Northeast 412 474 22,000  Level Washington Center
11:07 37.4000 -77.9056 25° Northeast 412 474 22,000  Level Washington Center
11:08 37.5036 -77.8431 26° Northeast 406 467 22,000  Level Washington Center
11:08 37.6111 -77.7783 25° Northeast 406 467 22,000 -1,080 Level Washington Center
11:09 37.7164 -77.7156 25° Northeast 406 467 19,900 -2,160 Descending Washington Center
11:11 37.8217 -77.6581 23° Northeast 406 467 17,700 -2,160 Descending Washington Center
11:11 37.9208 -77.6003 25° Northeast 401 461 15,600 -2,160 Descending Washington Center
11:12 38.0197 -77.5397 26° Northeast 395 455 13,500 -2,040 Descending Washington Center
11:13 38.1125 -77.4892 23° Northeast 380 437 11,600 -1,740 Descending Washington Center
11:15 38.1986 -77.4386 25° Northeast 355 409 10,000 -1,500 Descending Washington Center
11:15 38.2767 -77.3903 26° Northeast 324 373 8,700 -1,200 Descending Washington Center
11:16 38.3564 -77.3550 19° North 309 356 7,700 -1,020 Descending Washington Center
11:17 38.4375 -77.3597 357° North 294 338 6,700 -1,020 Descending Washington Center
11:19 38.5208 -77.3642 358° North 294 338 5,700 -900 Descending Washington Center
11:19 38.6000 -77.3661 359° North 289 333 5,000 -360 Descending Washington Center
11:20 38.6814 -77.3628 North 289 333 5,000 -480 Level Washington Center
11:22 38.7667 -77.3500 North 287 330 4,100 -480 Descending Potomac TRACON
11:23 38.8500 -77.3500 360° North 281 323 4,000 -60 Descending Potomac TRACON
11:24 38.9333 -77.3500 360° North 280 322 4,000  Level Potomac TRACON
11:25 39.0000 -77.3500 360° North 225 259 4,000  Level Potomac TRACON
11:25 39.0500 -77.3500 360° North 221 254 4,000  Level Potomac TRACON
11:27 39.1167 -77.3500 360° North 222 255 4,000 -540 Level Potomac TRACON
11:28 39.1667 -77.3500 360° North 217 250 3,000 -960 Descending Potomac TRACON
11:29 39.2000 -77.3833 322° Northwest 215 247 2,100 -540 Descending Potomac TRACON
11:30 39.1667 -77.4333 229° Southwest 193 222 2,000 -120 Descending Potomac TRACON
11:31 39.1167 -77.4333 180° South 188 216 1,900 -180 Descending Potomac TRACON
11:32 39.0667 -77.4333 180° South 177 204 1,700 -120 Descending Potomac TRACON
11:33 39.0167 -77.4333 180° South 176 203 1,700 -480 Level Potomac TRACON
11:33 38.9833 -77.4333 180° South 143 165 900 -900 Descending Potomac TRACON
11:35 38.9474 -77.4599 191° South  Level Estimated
11:42 38.9474 -77.4599 191° South  Level Estimated
11:43 38.9474 -77.4599 191° South  Level Estimated
11:44 38.9474 -77.4599 191° South  Level Estimated